createdAt,value
2019-01-29T00:00:03.032Z,777.3
2019-01-29T00:00:07.328Z,777.33
2019-01-29T00:00:11.627Z,777.34
2019-01-29T00:00:15.915Z,777.35
2019-01-29T00:00:20.180Z,777.34
2019-01-29T00:00:24.468Z,777.31
2019-01-29T00:00:28.805Z,777.34
2019-01-29T00:00:33.003Z,777.36
2019-01-29T00:00:37.358Z,777.31
2019-01-29T00:00:41.647Z,777.34
2019-01-29T00:00:45.943Z,777.38
2019-01-29T00:00:50.240Z,777.35
2019-01-29T00:00:54.537Z,777.36
2019-01-29T00:00:58.788Z,777.34
2019-01-29T00:01:03.087Z,777.34
2019-01-29T00:01:07.377Z,777.36
2019-01-29T00:01:11.573Z,777.32
2019-01-29T00:01:15.771Z,777.32
2019-01-29T00:01:20.084Z,777.3
2019-01-29T00:01:24.368Z,777.28
2019-01-29T00:01:28.562Z,777.29
2019-01-29T00:01:32.862Z,777.31
2019-01-29T00:01:37.160Z,777.27
2019-01-29T00:01:41.451Z,777.31
2019-01-29T00:01:45.663Z,777.35
2019-01-29T00:01:49.961Z,777.35
2019-01-29T00:01:54.249Z,777.3
2019-01-29T00:01:58.540Z,777.32
2019-01-29T00:02:02.842Z,777.32
2019-01-29T00:02:07.132Z,777.29
2019-01-29T00:02:11.321Z,777.28
2019-01-29T00:02:15.532Z,777.28
2019-01-29T00:02:19.801Z,777.28
2019-01-29T00:02:23.993Z,777.32
2019-01-29T00:02:28.286Z,777.32
2019-01-29T00:02:32.474Z,777.28
2019-01-29T00:02:36.669Z,777.31
2019-01-29T00:02:40.995Z,777.28
2019-01-29T00:02:46.979Z,777.33
2019-01-29T00:02:51.270Z,777.3
2019-01-29T00:02:55.368Z,777.28
2019-01-29T00:02:59.567Z,777.33
2019-01-29T00:03:03.758Z,777.31
2019-01-29T00:03:07.986Z,777.3
2019-01-29T00:03:12.275Z,777.3
2019-01-29T00:03:16.565Z,777.3
2019-01-29T00:03:20.856Z,777.32
2019-01-29T00:03:25.209Z,777.33
2019-01-29T00:03:29.500Z,777.35
2019-01-29T00:03:33.694Z,777.33
2019-01-29T00:03:37.995Z,777.34
2019-01-29T00:03:42.297Z,777.35
2019-01-29T00:03:46.588Z,777.36
2019-01-29T00:03:50.882Z,777.32
2019-01-29T00:03:55.007Z,777.32
2019-01-29T00:03:59.297Z,777.33
2019-01-29T00:04:03.597Z,777.35
2019-01-29T00:04:07.890Z,777.33
2019-01-29T00:04:12.194Z,777.36
2019-01-29T00:04:16.491Z,777.36
2019-01-29T00:04:20.692Z,777.36
2019-01-29T00:04:24.887Z,777.34
2019-01-29T00:04:29.180Z,777.38
2019-01-29T00:04:33.469Z,777.33
2019-01-29T00:04:37.673Z,777.31
2019-01-29T00:04:41.963Z,777.39
2019-01-29T00:04:46.060Z,777.33
2019-01-29T00:04:50.353Z,777.35
2019-01-29T00:04:54.637Z,777.38
2019-01-29T00:04:58.864Z,777.36
2019-01-29T00:05:03.154Z,777.35
2019-01-29T00:05:07.353Z,777.36
2019-01-29T00:05:11.640Z,777.35
2019-01-29T00:05:15.831Z,777.38
2019-01-29T00:05:20.196Z,777.41
2019-01-29T00:05:24.483Z,777.37
2019-01-29T00:05:28.686Z,777.38
2019-01-29T00:05:32.985Z,777.44
2019-01-29T00:05:37.182Z,777.4
2019-01-29T00:05:41.471Z,777.44
2019-01-29T00:05:45.660Z,777.41
2019-01-29T00:05:49.949Z,777.42
2019-01-29T00:05:54.245Z,777.44
2019-01-29T00:05:58.534Z,777.41
2019-01-29T00:06:02.833Z,777.45
2019-01-29T00:06:08.848Z,777.45
2019-01-29T00:06:13.282Z,777.44
2019-01-29T00:06:17.581Z,777.41
2019-01-29T00:06:21.871Z,777.46
2019-01-29T00:06:26.065Z,777.45
2019-01-29T00:06:30.431Z,777.44
2019-01-29T00:06:34.723Z,777.43
2019-01-29T00:06:39.021Z,777.47
2019-01-29T00:06:43.239Z,777.47
2019-01-29T00:06:47.570Z,777.47
2019-01-29T00:06:51.862Z,777.45
2019-01-29T00:06:56.157Z,777.44
2019-01-29T00:07:00.445Z,777.5
2019-01-29T00:07:04.646Z,777.48
2019-01-29T00:07:08.876Z,777.51
2019-01-29T00:07:13.164Z,777.51
2019-01-29T00:07:17.256Z,777.47
2019-01-29T00:07:21.355Z,777.49
2019-01-29T00:07:25.552Z,777.51
2019-01-29T00:07:29.751Z,777.51
2019-01-29T00:07:34.041Z,777.52
2019-01-29T00:07:38.338Z,777.49
2019-01-29T00:07:42.634Z,777.51
2019-01-29T00:07:46.925Z,777.54
2019-01-29T00:07:51.116Z,777.48
2019-01-29T00:07:55.300Z,777.55
2019-01-29T00:07:59.499Z,777.52
2019-01-29T00:08:03.883Z,777.5
2019-01-29T00:08:08.168Z,777.5
2019-01-29T00:08:12.470Z,777.51
2019-01-29T00:08:16.570Z,777.54
2019-01-29T00:08:20.865Z,777.52
2019-01-29T00:08:25.168Z,777.55
2019-01-29T00:08:29.457Z,777.5
2019-01-29T00:09:05.743Z,777.55
2019-01-29T00:09:09.960Z,777.55
2019-01-29T00:09:14.261Z,777.55
2019-01-29T00:09:18.454Z,777.55
2019-01-29T00:09:22.643Z,777.57
2019-01-29T00:09:26.864Z,777.56
2019-01-29T00:09:31.157Z,777.56
2019-01-29T00:09:35.453Z,777.52
2019-01-29T00:09:39.742Z,777.53
2019-01-29T00:09:43.935Z,777.54
2019-01-29T00:09:48.129Z,777.57
2019-01-29T00:09:52.413Z,777.56
2019-01-29T00:09:56.701Z,777.59
2019-01-29T00:10:00.993Z,777.58
2019-01-29T00:10:05.300Z,777.59
2019-01-29T00:10:09.514Z,777.57
2019-01-29T00:10:13.803Z,777.57
2019-01-29T00:10:17.993Z,777.55
2019-01-29T00:10:22.191Z,777.59
2019-01-29T00:10:26.480Z,777.54
2019-01-29T00:10:30.777Z,777.57
2019-01-29T00:10:35.073Z,777.59
2019-01-29T00:10:39.360Z,777.63
2019-01-29T00:10:43.645Z,777.59
2019-01-29T00:10:47.942Z,777.62
2019-01-29T00:10:52.130Z,777.57
2019-01-29T00:10:56.467Z,777.65
2019-01-29T00:11:00.657Z,777.61
2019-01-29T00:11:04.949Z,777.6
2019-01-29T00:11:09.245Z,777.65
2019-01-29T00:11:13.532Z,777.65
2019-01-29T00:11:17.823Z,777.59
2019-01-29T00:11:22.171Z,777.61
2019-01-29T00:11:26.457Z,777.69
2019-01-29T00:11:30.746Z,777.64
2019-01-29T00:11:35.033Z,777.65
2019-01-29T00:11:39.135Z,777.67
2019-01-29T00:11:43.329Z,777.64
2019-01-29T00:11:47.430Z,777.67
2019-01-29T00:11:51.622Z,777.66
2019-01-29T00:11:55.911Z,777.7
2019-01-29T00:12:00.204Z,777.66
2019-01-29T00:12:04.391Z,777.73
2019-01-29T00:12:08.586Z,777.73
2019-01-29T00:12:12.868Z,777.75
2019-01-29T00:12:17.159Z,777.77
2019-01-29T00:12:21.446Z,777.74
2019-01-29T00:12:25.802Z,777.72
2019-01-29T00:12:30.087Z,777.73
2019-01-29T00:12:36.199Z,777.75
2019-01-29T00:12:40.493Z,777.78
2019-01-29T00:12:44.694Z,777.76
2019-01-29T00:12:48.997Z,777.75
2019-01-29T00:12:53.291Z,777.8
2019-01-29T00:12:57.577Z,777.79
2019-01-29T00:13:01.871Z,777.83
2019-01-29T00:13:06.163Z,777.83
2019-01-29T00:13:10.454Z,777.81
2019-01-29T00:13:14.744Z,777.82
2019-01-29T00:13:19.035Z,777.81
2019-01-29T00:13:23.324Z,777.82
2019-01-29T00:13:27.415Z,777.81
2019-01-29T00:13:31.705Z,777.82
2019-01-29T00:13:35.988Z,777.8
2019-01-29T00:13:40.284Z,777.81
2019-01-29T00:13:44.481Z,777.85
2019-01-29T00:13:48.766Z,777.89
2019-01-29T00:13:53.058Z,777.88
2019-01-29T00:13:57.351Z,777.87
2019-01-29T00:14:01.639Z,777.84
2019-01-29T00:14:06.131Z,777.87
2019-01-29T00:14:10.424Z,777.88
2019-01-29T00:14:14.621Z,777.87
2019-01-29T00:14:18.906Z,777.88
2019-01-29T00:14:23.206Z,777.87
2019-01-29T00:14:27.508Z,777.88
2019-01-29T00:14:31.706Z,777.88
2019-01-29T00:14:35.997Z,777.86
2019-01-29T00:14:40.296Z,777.89
2019-01-29T00:14:44.581Z,777.85
2019-01-29T00:14:48.869Z,777.89
2019-01-29T00:14:53.162Z,777.9
2019-01-29T00:14:57.449Z,777.86
2019-01-29T00:15:01.736Z,777.86
2019-01-29T00:15:06.134Z,777.87
2019-01-29T00:15:10.485Z,777.79
2019-01-29T00:15:14.776Z,777.82
2019-01-29T00:15:18.966Z,777.84
2019-01-29T00:15:23.259Z,777.82
2019-01-29T00:15:27.461Z,777.84
2019-01-29T00:15:31.763Z,777.84
2019-01-29T00:15:35.954Z,777.84
2019-01-29T00:15:40.257Z,777.87
2019-01-29T00:15:44.462Z,777.81
2019-01-29T00:15:48.656Z,777.79
2019-01-29T00:15:52.853Z,777.77
2019-01-29T00:15:57.137Z,777.81
2019-01-29T00:16:01.419Z,777.82
2019-01-29T00:16:05.626Z,777.82
2019-01-29T00:16:09.914Z,777.81
2019-01-29T00:16:14.205Z,777.81
2019-01-29T00:16:18.293Z,777.83
2019-01-29T00:16:22.393Z,777.83
2019-01-29T00:16:26.694Z,777.83
2019-01-29T00:16:30.988Z,777.84
2019-01-29T00:16:35.279Z,777.81
2019-01-29T00:16:39.571Z,777.83
2019-01-29T00:16:43.862Z,777.82
2019-01-29T00:16:48.231Z,777.83
2019-01-29T00:16:52.418Z,777.84
2019-01-29T00:16:56.700Z,777.84
2019-01-29T00:17:00.989Z,777.82
2019-01-29T00:17:05.435Z,777.81
2019-01-29T00:17:09.721Z,777.79
2019-01-29T00:17:14.011Z,777.77
2019-01-29T00:17:18.304Z,777.85
2019-01-29T00:17:22.589Z,777.78
2019-01-29T00:17:26.683Z,777.81
2019-01-29T00:17:30.973Z,777.82
2019-01-29T00:17:35.254Z,777.8
2019-01-29T00:17:39.605Z,777.8
2019-01-29T00:17:43.797Z,777.77
2019-01-29T00:17:47.999Z,777.75
2019-01-29T00:17:52.303Z,777.79
2019-01-29T00:17:56.600Z,777.78
2019-01-29T00:18:00.893Z,777.77
2019-01-29T00:18:05.192Z,777.8
2019-01-29T00:18:09.250Z,777.8
2019-01-29T00:18:13.537Z,777.81
2019-01-29T00:18:17.746Z,777.83
2019-01-29T00:18:22.042Z,777.81
2019-01-29T00:18:26.239Z,777.82
2019-01-29T00:18:30.528Z,777.84
2019-01-29T00:18:34.815Z,777.85
2019-01-29T00:18:39.009Z,777.84
2019-01-29T00:18:43.205Z,777.84
2019-01-29T00:18:47.491Z,777.86
2019-01-29T00:18:51.783Z,777.85
2019-01-29T00:18:56.087Z,777.86
2019-01-29T00:19:00.379Z,777.85
2019-01-29T00:19:04.675Z,777.86
2019-01-29T00:19:08.873Z,777.86
2019-01-29T00:19:13.167Z,777.87
2019-01-29T00:19:17.357Z,777.88
2019-01-29T00:19:21.662Z,777.9
2019-01-29T00:19:25.958Z,777.9
2019-01-29T00:19:30.243Z,777.92
2019-01-29T00:19:34.461Z,777.87
2019-01-29T00:19:38.762Z,777.91
2019-01-29T00:19:43.048Z,777.91
2019-01-29T00:19:47.337Z,777.87
2019-01-29T00:19:51.636Z,777.89
2019-01-29T00:19:55.837Z,777.88
2019-01-29T00:20:00.030Z,777.87
2019-01-29T00:20:04.382Z,777.87
2019-01-29T00:20:08.672Z,777.91
2019-01-29T00:20:12.681Z,777.91
2019-01-29T00:20:16.981Z,777.9
2019-01-29T00:20:21.273Z,777.89
2019-01-29T00:20:25.573Z,777.89
2019-01-29T00:20:29.667Z,777.9
2019-01-29T00:20:33.781Z,777.91
2019-01-29T00:20:37.970Z,777.91
2019-01-29T00:20:42.318Z,777.87
2019-01-29T00:20:46.608Z,777.83
2019-01-29T00:20:50.950Z,777.82
2019-01-29T00:20:55.243Z,777.84
2019-01-29T00:20:59.525Z,777.91
2019-01-29T00:21:03.717Z,777.9
2019-01-29T00:21:08.005Z,777.86
2019-01-29T00:21:12.202Z,777.87
2019-01-29T00:21:16.494Z,777.85
2019-01-29T00:21:20.788Z,777.87
2019-01-29T00:21:25.090Z,777.89
2019-01-29T00:21:29.378Z,777.84
2019-01-29T00:21:33.660Z,777.82
2019-01-29T00:21:37.956Z,777.84
2019-01-29T00:21:42.240Z,777.85
2019-01-29T00:21:46.545Z,777.87
2019-01-29T00:21:50.734Z,777.76
2019-01-29T00:21:55.020Z,777.8
2019-01-29T00:21:59.214Z,777.76
2019-01-29T00:22:03.404Z,777.74
2019-01-29T00:22:07.698Z,777.76
2019-01-29T00:22:11.980Z,777.76
2019-01-29T00:22:16.267Z,777.74
2019-01-29T00:22:20.458Z,777.74
2019-01-29T00:22:33.033Z,777.77
2019-01-29T00:22:37.525Z,777.73
2019-01-29T00:22:41.827Z,777.77
2019-01-29T00:22:46.115Z,777.78
2019-01-29T00:22:50.411Z,777.76
2019-01-29T00:22:54.698Z,777.77
2019-01-29T00:22:58.990Z,777.76
2019-01-29T00:23:03.092Z,777.79
2019-01-29T00:23:07.392Z,777.76
2019-01-29T00:23:11.688Z,777.77
2019-01-29T00:23:15.969Z,777.75
2019-01-29T00:23:20.260Z,777.79
2019-01-29T00:23:24.544Z,777.81
2019-01-29T00:23:28.832Z,777.78
2019-01-29T00:23:33.119Z,777.82
2019-01-29T00:23:37.331Z,777.82
2019-01-29T00:23:41.620Z,777.83
2019-01-29T00:23:45.908Z,777.82
2019-01-29T00:23:50.097Z,777.81
2019-01-29T00:23:54.399Z,777.79
2019-01-29T00:23:58.588Z,777.75
2019-01-29T00:24:02.800Z,777.75
2019-01-29T00:24:07.096Z,777.75
2019-01-29T00:24:11.388Z,777.77
2019-01-29T00:24:15.493Z,777.74
2019-01-29T00:24:19.679Z,777.73
2019-01-29T00:24:23.965Z,777.77
2019-01-29T00:24:28.274Z,777.77
2019-01-29T00:24:32.555Z,777.76
2019-01-29T00:24:36.921Z,777.75
2019-01-29T00:24:41.205Z,777.76
2019-01-29T00:24:45.413Z,777.75
2019-01-29T00:24:49.696Z,777.76
2019-01-29T00:24:53.979Z,777.71
2019-01-29T00:24:58.172Z,777.74
2019-01-29T00:25:02.544Z,777.72
2019-01-29T00:25:06.836Z,777.71
2019-01-29T00:25:11.147Z,777.76
2019-01-29T00:25:15.439Z,777.7
2019-01-29T00:25:19.723Z,777.69
2019-01-29T00:25:24.012Z,777.72
2019-01-29T00:25:28.206Z,777.73
2019-01-29T00:25:32.512Z,777.73
2019-01-29T00:25:36.804Z,777.72
2019-01-29T00:25:40.803Z,777.77
2019-01-29T00:25:44.998Z,777.76
2019-01-29T00:25:49.290Z,777.73
2019-01-29T00:25:53.582Z,777.72
2019-01-29T00:25:57.869Z,777.74
2019-01-29T00:26:02.205Z,777.73
2019-01-29T00:26:06.497Z,777.73
2019-01-29T00:26:10.783Z,777.74
2019-01-29T00:26:15.108Z,777.75
2019-01-29T00:26:19.298Z,777.71
2019-01-29T00:26:23.589Z,777.7
2019-01-29T00:26:27.801Z,777.7
2019-01-29T00:26:32.004Z,777.73
2019-01-29T00:26:36.301Z,777.7
2019-01-29T00:26:40.592Z,777.72
2019-01-29T00:26:44.698Z,777.7
2019-01-29T00:26:48.986Z,777.73
2019-01-29T00:26:53.331Z,777.77
2019-01-29T00:26:57.630Z,777.71
2019-01-29T00:27:01.924Z,777.71
2019-01-29T00:27:06.262Z,777.69
2019-01-29T00:27:10.454Z,777.72
2019-01-29T00:27:14.738Z,777.74
2019-01-29T00:27:19.030Z,777.77
2019-01-29T00:27:23.316Z,777.77
2019-01-29T00:27:27.602Z,777.76
2019-01-29T00:27:31.900Z,777.78
2019-01-29T00:27:36.194Z,777.83
2019-01-29T00:27:40.488Z,777.82
2019-01-29T00:27:44.737Z,777.86
2019-01-29T00:27:48.862Z,777.8
2019-01-29T00:27:53.150Z,777.82
2019-01-29T00:27:57.350Z,777.86
2019-01-29T00:28:01.547Z,777.85
2019-01-29T00:28:05.762Z,777.83
2019-01-29T00:28:09.950Z,777.83
2019-01-29T00:28:14.234Z,777.84
2019-01-29T00:28:18.524Z,777.85
2019-01-29T00:28:22.630Z,777.84
2019-01-29T00:28:26.924Z,777.88
2019-01-29T00:28:31.112Z,777.89
2019-01-29T00:28:35.310Z,777.84
2019-01-29T00:28:39.609Z,777.88
2019-01-29T00:28:43.907Z,777.87
2019-01-29T00:28:48.010Z,777.86
2019-01-29T00:28:52.258Z,777.87
2019-01-29T00:28:56.554Z,777.86
2019-01-29T00:29:00.846Z,777.87
2019-01-29T00:29:05.133Z,777.86
2019-01-29T00:29:09.427Z,777.91
2019-01-29T00:29:13.531Z,777.87
2019-01-29T00:29:17.817Z,777.91
2019-01-29T00:29:22.109Z,777.85
2019-01-29T00:29:26.398Z,777.88
2019-01-29T00:29:30.691Z,777.89
2019-01-29T00:29:34.984Z,777.88
2019-01-29T00:29:39.278Z,777.87
2019-01-29T00:29:43.567Z,777.87
2019-01-29T00:29:47.863Z,777.86
2019-01-29T00:29:52.153Z,777.86
2019-01-29T00:29:56.347Z,777.88
2019-01-29T00:30:00.640Z,777.85
2019-01-29T00:30:04.955Z,777.89
2019-01-29T00:30:09.247Z,777.86
2019-01-29T00:30:13.537Z,777.87
2019-01-29T00:30:17.827Z,777.89
2019-01-29T00:30:22.116Z,777.88
2019-01-29T00:30:28.234Z,777.9
2019-01-29T00:30:32.534Z,777.95
2019-01-29T00:30:36.732Z,777.94
2019-01-29T00:30:41.036Z,777.95
2019-01-29T00:30:45.234Z,777.94
2019-01-29T00:30:49.527Z,777.95
2019-01-29T00:30:53.813Z,777.94
2019-01-29T00:30:58.096Z,777.89
2019-01-29T00:31:02.292Z,777.95
2019-01-29T00:31:06.585Z,777.91
2019-01-29T00:31:10.872Z,777.93
2019-01-29T00:31:15.163Z,777.98
2019-01-29T00:31:19.356Z,777.96
2019-01-29T00:31:23.648Z,777.98
2019-01-29T00:31:27.939Z,777.97
2019-01-29T00:31:32.142Z,777.98
2019-01-29T00:31:36.442Z,777.94
2019-01-29T00:31:40.729Z,777.96
2019-01-29T00:31:45.017Z,777.94
2019-01-29T00:31:49.213Z,777.97
2019-01-29T00:31:53.411Z,777.99
2019-01-29T00:31:57.694Z,777.98
2019-01-29T00:32:01.983Z,777.97
2019-01-29T00:32:06.275Z,777.97
2019-01-29T00:32:10.565Z,777.94
2019-01-29T00:32:14.869Z,777.96
2019-01-29T00:32:19.157Z,778
2019-01-29T00:32:23.359Z,777.97
2019-01-29T00:32:27.649Z,777.97
2019-01-29T00:32:31.941Z,777.98
2019-01-29T00:32:36.230Z,777.95
2019-01-29T00:32:40.419Z,778
2019-01-29T00:32:44.725Z,777.96
2019-01-29T00:32:49.063Z,777.96
2019-01-29T00:32:53.362Z,777.91
2019-01-29T00:32:57.657Z,777.9
2019-01-29T00:33:02.000Z,777.9
2019-01-29T00:33:06.319Z,777.92
2019-01-29T00:33:10.605Z,777.91
2019-01-29T00:33:14.796Z,777.89
2019-01-29T00:33:19.095Z,777.89
2019-01-29T00:33:23.201Z,777.93
2019-01-29T00:33:27.394Z,777.93
2019-01-29T00:33:31.679Z,777.92
2019-01-29T00:33:35.970Z,777.96
2019-01-29T00:33:40.264Z,777.95
2019-01-29T00:33:44.555Z,777.94
2019-01-29T00:33:48.841Z,777.95
2019-01-29T00:33:53.135Z,777.95
2019-01-29T00:33:57.432Z,777.96
2019-01-29T00:34:01.724Z,777.99
2019-01-29T00:34:06.017Z,777.98
2019-01-29T00:34:10.357Z,777.92
2019-01-29T00:34:14.654Z,777.93
2019-01-29T00:34:18.941Z,777.96
2019-01-29T00:34:23.234Z,777.99
2019-01-29T00:34:27.525Z,777.96
2019-01-29T00:34:31.717Z,778
2019-01-29T00:34:36.074Z,778
2019-01-29T00:34:40.360Z,777.98
2019-01-29T00:34:44.556Z,778
2019-01-29T00:34:48.842Z,778.02
2019-01-29T00:34:53.124Z,778.01
2019-01-29T00:34:57.415Z,777.97
2019-01-29T00:35:01.722Z,778.05
2019-01-29T00:35:05.919Z,778.04
2019-01-29T00:35:10.208Z,778.02
2019-01-29T00:35:14.500Z,778.02
2019-01-29T00:35:18.812Z,778.06
2019-01-29T00:35:23.104Z,778.06
2019-01-29T00:35:27.300Z,778.03
2019-01-29T00:35:31.584Z,778.06
2019-01-29T00:35:35.770Z,778.07
2019-01-29T00:35:39.964Z,778.08
2019-01-29T00:35:44.250Z,778.07
2019-01-29T00:35:48.544Z,778.05
2019-01-29T00:35:52.831Z,778.01
2019-01-29T00:35:57.022Z,778.05
2019-01-29T00:36:01.306Z,778.09
2019-01-29T00:36:05.601Z,778.11
2019-01-29T00:36:09.893Z,778.09
2019-01-29T00:36:14.189Z,778.05
2019-01-29T00:36:18.478Z,778.06
2019-01-29T00:36:22.664Z,778.08
2019-01-29T00:36:26.872Z,778.04
2019-01-29T00:36:31.063Z,778.06
2019-01-29T00:36:35.353Z,778.07
2019-01-29T00:36:39.544Z,778.04
2019-01-29T00:36:43.745Z,778.09
2019-01-29T00:36:48.033Z,778.07
2019-01-29T00:36:52.220Z,778.07
2019-01-29T00:36:56.521Z,778.09
2019-01-29T00:37:00.803Z,778.04
2019-01-29T00:37:04.994Z,778.06
2019-01-29T00:37:09.303Z,778.01
2019-01-29T00:37:13.596Z,778
2019-01-29T00:37:17.889Z,778.05
2019-01-29T00:37:22.081Z,778.06
2019-01-29T00:37:26.374Z,778.05
2019-01-29T00:37:30.722Z,778.04
2019-01-29T00:37:34.916Z,778.03
2019-01-29T00:37:39.229Z,778.04
2019-01-29T00:37:43.538Z,778.03
2019-01-29T00:37:47.737Z,778.05
2019-01-29T00:37:52.028Z,778.05
2019-01-29T00:37:56.215Z,778.03
2019-01-29T00:38:00.508Z,778.03
2019-01-29T00:38:04.704Z,778.03
2019-01-29T00:38:08.995Z,778.01
2019-01-29T00:38:13.299Z,778.03
2019-01-29T00:38:17.590Z,778.03
2019-01-29T00:38:21.876Z,778.08
2019-01-29T00:38:26.082Z,778.08
2019-01-29T00:38:30.276Z,778.1
2019-01-29T00:38:34.567Z,778.08
2019-01-29T00:38:38.858Z,778.11
2019-01-29T00:38:43.149Z,778.12
2019-01-29T00:38:47.447Z,778.11
2019-01-29T00:38:51.641Z,778.12
2019-01-29T00:38:55.831Z,778.14
2019-01-29T00:39:00.134Z,778.12
2019-01-29T00:39:04.650Z,778.15
2019-01-29T00:39:08.962Z,778.13
2019-01-29T00:39:13.263Z,778.14
2019-01-29T00:39:17.372Z,778.12
2019-01-29T00:39:21.534Z,778.13
2019-01-29T00:39:25.825Z,778.09
2019-01-29T00:39:30.111Z,778.08
2019-01-29T00:39:34.403Z,778.09
2019-01-29T00:39:38.688Z,778.04
2019-01-29T00:39:42.784Z,778.09
2019-01-29T00:39:46.887Z,778.07
2019-01-29T00:39:51.176Z,778.06
2019-01-29T00:39:55.463Z,778.06
2019-01-29T00:39:59.752Z,778.06
2019-01-29T00:40:04.043Z,778.02
2019-01-29T00:40:08.335Z,778.02
2019-01-29T00:40:12.524Z,778.05
2019-01-29T00:40:16.713Z,778.05
2019-01-29T00:40:21.002Z,778.05
2019-01-29T00:40:25.291Z,778.06
2019-01-29T00:40:29.584Z,778.05
2019-01-29T00:40:33.879Z,778.04
2019-01-29T00:40:38.164Z,778.03
2019-01-29T00:40:42.516Z,778.03
2019-01-29T00:40:46.886Z,778.06
2019-01-29T00:40:51.177Z,778.09
2019-01-29T00:40:55.366Z,778.07
2019-01-29T00:40:59.657Z,778.1
2019-01-29T00:41:03.951Z,778.09
2019-01-29T00:41:08.044Z,778.08
2019-01-29T00:41:12.325Z,778.05
2019-01-29T00:41:16.414Z,778.07
2019-01-29T00:41:20.703Z,778.1
2019-01-29T00:41:24.890Z,778.07
2019-01-29T00:41:29.179Z,778.06
2019-01-29T00:41:33.476Z,778.05
2019-01-29T00:41:37.765Z,778.14
2019-01-29T00:41:42.064Z,778.11
2019-01-29T00:41:46.354Z,778.14
2019-01-29T00:41:50.638Z,778.13
2019-01-29T00:41:54.997Z,778.18
2019-01-29T00:41:59.279Z,778.12
2019-01-29T00:42:03.573Z,778.17
2019-01-29T00:42:07.864Z,778.17
2019-01-29T00:42:12.136Z,778.17
2019-01-29T00:42:16.325Z,778.17
2019-01-29T00:42:20.515Z,778.19
2019-01-29T00:42:24.704Z,778.13
2019-01-29T00:42:28.797Z,778.14
2019-01-29T00:42:33.079Z,778.17
2019-01-29T00:42:37.406Z,778.12
2019-01-29T00:42:41.693Z,778.16
2019-01-29T00:42:45.882Z,778.13
2019-01-29T00:42:50.072Z,778.14
2019-01-29T00:42:54.448Z,778.15
2019-01-29T00:42:58.733Z,778.16
2019-01-29T00:43:03.027Z,778.18
2019-01-29T00:43:07.235Z,778.17
2019-01-29T00:43:11.519Z,778.16
2019-01-29T00:43:15.711Z,778.17
2019-01-29T00:43:19.999Z,778.16
2019-01-29T00:43:24.193Z,778.21
2019-01-29T00:43:28.483Z,778.23
2019-01-29T00:43:32.773Z,778.19
2019-01-29T00:43:36.876Z,778.22
2019-01-29T00:43:41.167Z,778.24
2019-01-29T00:43:45.366Z,778.22
2019-01-29T00:43:49.557Z,778.22
2019-01-29T00:43:53.656Z,778.22
2019-01-29T00:43:57.854Z,778.25
2019-01-29T00:44:02.147Z,778.22
2019-01-29T00:44:06.432Z,778.25
2019-01-29T00:44:10.621Z,778.24
2019-01-29T00:44:14.929Z,778.24
2019-01-29T00:44:19.122Z,778.24
2019-01-29T00:44:23.223Z,778.24
2019-01-29T00:44:27.412Z,778.25
2019-01-29T00:44:31.610Z,778.23
2019-01-29T00:44:35.806Z,778.26
2019-01-29T00:44:40.097Z,778.27
2019-01-29T00:44:44.290Z,778.25
2019-01-29T00:44:48.582Z,778.24
2019-01-29T00:44:52.872Z,778.25
2019-01-29T00:44:57.082Z,778.17
2019-01-29T00:45:01.276Z,778.24
2019-01-29T00:45:05.717Z,778.22
2019-01-29T00:45:10.003Z,778.23
2019-01-29T00:45:14.287Z,778.21
2019-01-29T00:45:18.486Z,778.22
2019-01-29T00:45:22.601Z,778.22
2019-01-29T00:45:26.799Z,778.25
2019-01-29T00:45:30.994Z,778.23
2019-01-29T00:45:35.187Z,778.21
2019-01-29T00:45:39.382Z,778.25
2019-01-29T00:45:43.575Z,778.24
2019-01-29T00:45:47.862Z,778.3
2019-01-29T00:45:52.153Z,778.28
2019-01-29T00:45:56.254Z,778.29
2019-01-29T00:46:00.554Z,778.28
2019-01-29T00:46:04.659Z,778.26
2019-01-29T00:46:08.959Z,778.29
2019-01-29T00:46:13.148Z,778.29
2019-01-29T00:46:17.433Z,778.27
2019-01-29T00:46:21.626Z,778.26
2019-01-29T00:46:25.909Z,778.29
2019-01-29T00:46:30.005Z,778.29
2019-01-29T00:46:34.298Z,778.32
2019-01-29T00:46:38.503Z,778.3
2019-01-29T00:46:42.796Z,778.31
2019-01-29T00:46:46.996Z,778.29
2019-01-29T00:46:51.192Z,778.36
2019-01-29T00:46:55.484Z,778.34
2019-01-29T00:46:59.772Z,778.35
2019-01-29T00:47:04.061Z,778.31
2019-01-29T00:47:08.351Z,778.31
2019-01-29T00:47:12.643Z,778.32
2019-01-29T00:47:16.935Z,778.34
2019-01-29T00:47:21.224Z,778.29
2019-01-29T00:47:25.567Z,778.33
2019-01-29T00:47:29.866Z,778.35
2019-01-29T00:47:34.152Z,778.32
2019-01-29T00:47:38.439Z,778.32
2019-01-29T00:47:42.535Z,778.34
2019-01-29T00:47:46.828Z,778.34
2019-01-29T00:47:51.111Z,778.33
2019-01-29T00:47:55.402Z,778.32
2019-01-29T00:47:59.695Z,778.32
2019-01-29T00:48:04.039Z,778.34
2019-01-29T00:48:08.328Z,778.31
2019-01-29T00:48:12.626Z,778.32
2019-01-29T00:48:16.814Z,778.35
2019-01-29T00:48:21.162Z,778.32
2019-01-29T00:48:25.453Z,778.34
2019-01-29T00:48:29.745Z,778.34
2019-01-29T00:48:34.041Z,778.33
2019-01-29T00:48:38.232Z,778.34
2019-01-29T00:48:42.329Z,778.36
2019-01-29T00:48:46.659Z,778.36
2019-01-29T00:48:50.948Z,778.35
2019-01-29T00:48:55.233Z,778.32
2019-01-29T00:48:59.520Z,778.34
2019-01-29T00:49:03.803Z,778.33
2019-01-29T00:49:08.092Z,778.32
2019-01-29T00:49:12.289Z,778.34
2019-01-29T00:49:16.620Z,778.24
2019-01-29T00:49:22.721Z,778.28
2019-01-29T00:49:27.106Z,778.26
2019-01-29T00:49:31.465Z,778.26
2019-01-29T00:49:35.754Z,778.26
2019-01-29T00:49:39.946Z,778.27
2019-01-29T00:49:44.238Z,778.3
2019-01-29T00:49:48.527Z,778.25
2019-01-29T00:49:52.836Z,778.32
2019-01-29T00:49:57.031Z,778.32
2019-01-29T00:50:01.323Z,778.3
2019-01-29T00:50:05.617Z,778.29
2019-01-29T00:50:09.717Z,778.29
2019-01-29T00:50:14.010Z,778.29
2019-01-29T00:50:18.310Z,778.27
2019-01-29T00:50:22.503Z,778.24
2019-01-29T00:50:26.796Z,778.26
2019-01-29T00:50:31.088Z,778.23
2019-01-29T00:50:35.379Z,778.24
2019-01-29T00:50:39.579Z,778.27
2019-01-29T00:50:43.788Z,778.2
2019-01-29T00:50:48.084Z,778.23
2019-01-29T00:50:52.380Z,778.22
2019-01-29T00:50:56.635Z,778.2
2019-01-29T00:51:00.929Z,778.23
2019-01-29T00:51:05.220Z,778.21
2019-01-29T00:51:09.408Z,778.22
2019-01-29T00:51:13.702Z,778.22
2019-01-29T00:51:17.893Z,778.23
2019-01-29T00:51:22.222Z,778.24
2019-01-29T00:51:26.508Z,778.21
2019-01-29T00:51:30.852Z,778.2
2019-01-29T00:51:35.047Z,778.23
2019-01-29T00:51:39.138Z,778.22
2019-01-29T00:51:43.424Z,778.22
2019-01-29T00:51:47.715Z,778.2
2019-01-29T00:51:52.008Z,778.19
2019-01-29T00:51:56.298Z,778.18
2019-01-29T00:52:00.587Z,778.21
2019-01-29T00:52:04.890Z,778.24
2019-01-29T00:52:09.184Z,778.21
2019-01-29T00:52:13.277Z,778.19
2019-01-29T00:52:17.471Z,778.19
2019-01-29T00:52:21.759Z,778.2
2019-01-29T00:52:26.053Z,778.15
2019-01-29T00:52:30.247Z,778.16
2019-01-29T00:52:43.198Z,778.17
2019-01-29T00:52:47.394Z,778.17
2019-01-29T00:52:51.694Z,778.18
2019-01-29T00:52:55.891Z,778.16
2019-01-29T00:52:59.987Z,778.18
2019-01-29T00:53:04.293Z,778.15
2019-01-29T00:53:08.587Z,778.15
2019-01-29T00:53:12.890Z,778.14
2019-01-29T00:53:17.177Z,778.13
2019-01-29T00:53:21.471Z,778.16
2019-01-29T00:53:25.664Z,778.15
2019-01-29T00:53:29.952Z,778.17
2019-01-29T00:53:34.236Z,778.16
2019-01-29T00:53:38.424Z,778.16
2019-01-29T00:53:42.518Z,778.15
2019-01-29T00:53:46.807Z,778.15
2019-01-29T00:53:51.091Z,778.16
2019-01-29T00:53:55.386Z,778.12
2019-01-29T00:53:59.677Z,778.12
2019-01-29T00:54:04.122Z,778.14
2019-01-29T00:54:08.319Z,778.12
2019-01-29T00:54:12.606Z,778.17
2019-01-29T00:54:16.897Z,778.19